• Join FlightAware (Why Join?)
  • Login
  • US Flag 
12:41PM EDT


 

Airport Tracker/Info


-or-


 

Live Flight TrackerFlight Track Log ✈ PDT4129 ✈ 07-May-2013 ✈ KPGV - KCLT

Flight Track Log - Related Links

Times and Time Zones

All times are in EDT time to prevent confusion due to time zone crossing. See the PDT4129 flight status page for this flight to view local times or setup timezone preferences in your user account.

Time Position Orientation Groundspeed Altitude Reporting Facility
EDT Latitude Longitude Course Direction KTS MPH feet Rate Location/Type
07:01AM 35.7167 -77.4108 282° West 213 245 2,800  Level Washington Center
07:02AM 35.6830 -77.6652 284° West  Level FlightAware Approximate
07:02AM 35.7197 -77.4725 274° West 159 183 4,200  Level Washington Center
07:03AM 35.6883 -77.7364 287° West  Level FlightAware Approximate
07:03AM 35.7208 -77.5339 271° West 160 184 5,300  Level Washington Center
07:04AM 35.7055 -77.8054 287° West  Level FlightAware Approximate
07:04AM 35.7242 -77.5953 274° West 175 201 6,700  Level Washington Center
07:05AM 35.7167 -77.8755 270° West  Level FlightAware Approximate
07:05AM 35.7272 -77.6567 274° West 182 209 7,800  Level Washington Center
07:06AM 35.7307 -77.9565 282° West  Level FlightAware Approximate
07:06AM 35.7303 -77.7233 273° West 187 215 8,700  Level Washington Center
07:07AM 35.7353 -77.7953 275° West 202 232 9,200 480 Climbing Washington Center
07:07AM 35.7361 -77.8617 271° West 235 270 9,600 480 Climbing Washington Center
07:08AM 35.7400 -77.8747 290° West 218 251 9,700 360 Climbing Washington Center
07:09AM 35.7403 -77.9617 270° West 241 277 10,100 180 Climbing Washington Center
07:10AM 35.7428 -78.0461 272° West 254 292 10,100  Level Washington Center
07:11AM 35.7472 -78.1383 273° West 268 308 10,100  Level Washington Center
07:12AM 35.7558 -78.2233 277° West 265 305 10,100  Level Washington Center
07:13AM 35.7600 -78.3156 273° West 270 311 10,100  Level Washington Center
07:14AM 35.7642 -78.4078 273° West 270 311 10,100  Level Washington Center
07:15AM 35.7639 -78.5025 270° West 268 308 10,100  Level Washington Center
07:16AM 35.7719 -78.6000 276° West 270 311 10,100  Level Washington Center
07:17AM 35.7758 -78.6922 273° West 270 311 10,100  Level Washington Center
07:18AM 35.7794 -78.7950 273° West 268 308 10,100  Level Washington Center
07:19AM 35.7833 -78.8847 273° West 268 308 10,100  Level Washington Center
07:20AM 35.7847 -78.9769 271° West 269 310 10,100  Level Washington Center
07:21AM 35.7883 -79.0692 273° West 269 310 10,100  Level Washington Center
07:22AM 35.7942 -79.1617 274° West 268 308 10,100  Level Washington Center
07:23AM 35.7989 -79.2747 273° West 269 310 10,100 -180 Level Washington Center
07:25AM 35.7997 -79.3977 270° West  Level FlightAware Approximate
07:32AM 35.8007 -79.9783 270° West  Level FlightAware Approximate
07:32AM 35.8136 -80.1003 270° West 277 319 8,700  Level Atlanta Center
07:33AM 35.8007 -80.0612 270° West  Level FlightAware Approximate
07:33AM 35.8119 -80.1822 269° West 264 304 8,000  Level Atlanta Center
07:34AM 35.8006 -80.1441 270° West  Level FlightAware Approximate
07:34AM 35.8125 -80.2642 271° West 262 302 7,300  Level Atlanta Center
07:35AM 35.8005 -80.2270 270° West  Level FlightAware Approximate
07:35AM 35.8031 -80.3697 264° West 267 307 6,400  Level Atlanta Center
07:36AM 35.8003 -80.3099 270° West  Level FlightAware Approximate
07:36AM 35.7764 -80.4528 248° West 257 296 6,100  Level Atlanta Center
07:37AM 35.8001 -80.3928 270° West  Level FlightAware Approximate
07:37AM 35.7194 -80.5039 216° Southwest 247 284 6,100  Level Atlanta Center
07:38AM 35.6478 -80.5453 205° Southwest 244 281 6,100  Level Atlanta Center
07:39AM 35.5881 -80.5811 206° Southwest 244 281 6,100  Level Atlanta Center
07:40AM 35.5308 -80.6167 207° Southwest 244 281 6,100  Level Atlanta Center
07:41AM 35.4692 -80.6522 205° Southwest 243 280 6,100  Level Atlanta Center
07:42AM 35.4156 -80.6750 199° South 203 234 6,100 -420 Level Atlanta Center
07:43AM 35.3689 -80.7278 223° Southwest 186 214 5,300 -900 Descending Atlanta Center
07:44AM 35.3408 -80.7672 229° Southwest 177 204 4,300 -1,020 Descending Atlanta Center
07:45AM 35.3067 -80.8169 230° Southwest 164 189 3,300 -900 Descending Atlanta Center